Time;durP1;ratioP1;P1;durP2;ratioP2;P2;SDS_P1;SDS_P2;PMS_P1;PMS_P2;Temp;Humidity;BMP_temperature;BMP_pressure;BME280_temperature;BME280_humidity;BME280_pressure;Samples;Min_cycle;Max_cycle;Signal;HPM_P1;HPM_P2
2021/09/11 00:02:24;;;;;;;5.35;4.65;;;20.00;84.60;;;;;;5070909;28;20061;-76
2021/09/11 00:04:50;;;;;;;6.13;4.82;;;19.90;84.60;;;;;;5072956;28;20103;-77
2021/09/11 00:07:16;;;;;;;8.02;6.47;;;19.90;84.50;;;;;;5071003;28;20031;-77
2021/09/11 00:09:42;;;;;;;7.07;5.93;;;19.90;84.60;;;;;;5074226;28;20024;-77
2021/09/11 00:12:10;;;;;;;6.22;5.60;;;19.90;84.70;;;;;;5073785;28;20019;-77
2021/09/11 00:14:36;;;;;;;6.05;5.28;;;19.80;84.60;;;;;;5073340;28;20036;-77
2021/09/11 00:17:02;;;;;;;7.55;6.15;;;19.80;84.60;;;;;;5073470;28;20438;-77
2021/09/11 00:19:28;;;;;;;6.28;4.97;;;19.80;84.60;;;;;;5073568;28;20514;-77
2021/09/11 00:21:54;;;;;;;6.07;5.10;;;19.80;84.60;;;;;;5071991;28;20036;-76
2021/09/11 00:24:19;;;;;;;4.88;4.25;;;19.80;84.60;;;;;;5071215;28;20016;-77
2021/09/11 00:26:45;;;;;;;6.65;5.25;;;19.80;84.50;;;;;;5072701;28;20025;-77
2021/09/11 00:29:10;;;;;;;4.10;3.70;;;19.80;84.40;;;;;;5072713;28;20062;-77
2021/09/11 00:31:36;;;;;;;5.03;4.47;;;19.80;84.40;;;;;;5073174;28;20143;-77
2021/09/11 00:34:02;;;;;;;5.13;4.10;;;19.80;84.30;;;;;;5061380;28;20536;-76
2021/09/11 00:36:28;;;;;;;4.43;3.90;;;19.80;84.20;;;;;;5072847;28;20082;-77
2021/09/11 00:38:53;;;;;;;5.35;4.55;;;19.70;84.10;;;;;;5073654;28;20029;-77
2021/09/11 00:41:19;;;;;;;3.83;3.20;;;19.60;84.20;;;;;;5067357;28;20107;-77
2021/09/11 00:43:48;;;;;;;6.07;5.10;;;19.60;84.20;;;;;;5071804;28;20031;-77
2021/09/11 00:46:14;;;;;;;7.05;4.65;;;19.60;84.30;;;;;;5071619;28;20029;-77
2021/09/11 00:48:40;;;;;;;4.75;3.85;;;19.50;84.30;;;;;;5072339;28;20029;-77
2021/09/11 00:51:05;;;;;;;6.43;4.88;;;19.50;84.40;;;;;;5063818;28;20443;-76
2021/09/11 00:53:31;;;;;;;6.70;5.00;;;19.50;84.40;;;;;;5071658;28;20074;-77
2021/09/11 00:55:57;;;;;;;5.38;4.65;;;19.50;84.40;;;;;;5072945;28;20036;-77
2021/09/11 00:58:23;;;;;;;6.25;4.18;;;19.50;84.30;;;;;;5073160;28;20017;-76
2021/09/11 01:00:48;;;;;;;7.10;5.22;;;19.50;84.30;;;;;;5072946;28;20489;-76
2021/09/11 01:03:14;;;;;;;5.57;4.75;;;19.50;84.30;;;;;;5072263;28;20384;-77
2021/09/11 01:05:41;;;;;;;6.50;5.68;;;19.40;84.30;;;;;;5071893;28;20367;-76
2021/09/11 01:08:06;;;;;;;5.55;4.78;;;19.40;84.30;;;;;;5072116;28;20538;-77
2021/09/11 01:10:32;;;;;;;6.03;4.57;;;19.40;84.20;;;;;;5068190;28;20152;-76
2021/09/11 01:12:59;;;;;;;5.68;4.72;;;19.40;84.20;;;;;;5071124;28;20029;-77
2021/09/11 01:15:32;;;;;;;7.93;4.88;;;19.30;84.20;;;;;;5072005;28;20025;-75
2021/09/11 01:17:58;;;;;;;6.18;4.47;;;19.30;84.30;;;;;;5071627;28;20495;-77
2021/09/11 01:20:24;;;;;;;6.57;5.05;;;19.30;84.40;;;;;;5069447;28;20039;-77
2021/09/11 01:22:49;;;;;;;6.28;4.93;;;19.30;84.40;;;;;;5064082;28;20026;-76
2021/09/11 01:25:15;;;;;;;7.15;5.15;;;19.30;84.40;;;;;;5072012;28;20486;-77
2021/09/11 01:27:40;;;;;;;7.55;5.85;;;19.30;84.40;;;;;;5071579;28;20036;-76
2021/09/11 01:30:11;;;;;;;7.05;5.43;;;19.20;84.40;;;;;;5068552;28;20479;-77
2021/09/11 01:32:37;;;;;;;7.97;6.05;;;19.20;84.40;;;;;;5071970;28;20025;-77
2021/09/11 01:35:04;;;;;;;6.65;4.50;;;19.20;84.40;;;;;;5072961;28;20630;-76
2021/09/11 01:37:30;;;;;;;6.57;5.55;;;19.20;84.60;;;;;;5070586;28;20029;-77
2021/09/11 01:39:55;;;;;;;6.65;4.90;;;19.10;84.50;;;;;;5072566;28;20493;-77
2021/09/11 01:42:27;;;;;;;8.63;5.60;;;19.10;84.50;;;;;;5072042;28;20029;-77
2021/09/11 01:45:13;;;;;;;7.10;5.45;;;19.00;84.50;;;;;;5072074;28;20032;-77
2021/09/11 01:47:40;;;;;;;6.57;5.15;;;19.00;84.40;;;;;;5072075;28;20020;-77
2021/09/11 01:50:07;;;;;;;5.72;5.00;;;19.00;84.40;;;;;;5071269;28;20370;-78
2021/09/11 01:52:33;;;;;;;6.22;5.32;;;18.90;84.30;;;;;;5072592;28;20024;-78
2021/09/11 01:54:59;;;;;;;6.32;5.07;;;18.90;84.30;;;;;;5071896;28;20073;-77
2021/09/11 01:57:24;;;;;;;5.55;4.00;;;18.90;84.20;;;;;;5070884;28;20079;-78
2021/09/11 01:59:50;;;;;;;5.50;4.10;;;18.90;84.20;;;;;;5065386;28;20029;-77
2021/09/11 02:02:16;;;;;;;5.55;4.00;;;18.90;84.20;;;;;;5070785;28;20042;-77
2021/09/11 02:04:41;;;;;;;5.47;3.67;;;18.80;84.10;;;;;;5071604;28;20035;-77
2021/09/11 02:07:07;;;;;;;7.75;5.30;;;18.80;84.10;;;;;;5072104;28;20478;-77
2021/09/11 02:09:34;;;;;;;6.45;4.07;;;18.80;84.20;;;;;;5069758;28;20394;-77
2021/09/11 02:12:00;;;;;;;5.20;4.05;;;18.80;84.20;;;;;;5069733;28;20016;-77
2021/09/11 02:14:26;;;;;;;6.10;4.18;;;18.80;84.10;;;;;;5071629;28;20031;-77
2021/09/11 02:16:51;;;;;;;6.35;4.15;;;18.80;84.00;;;;;;5070887;28;20067;-77
2021/09/11 02:19:17;;;;;;;5.80;4.22;;;18.80;84.00;;;;;;5071500;28;20534;-77
2021/09/11 02:21:43;;;;;;;5.88;4.68;;;18.80;84.10;;;;;;5070903;28;20041;-77
2021/09/11 02:24:08;;;;;;;5.43;3.78;;;18.80;84.00;;;;;;5069641;28;20016;-77
2021/09/11 02:26:35;;;;;;;6.88;4.93;;;18.80;84.00;;;;;;5070593;28;20040;-78
2021/09/11 02:29:02;;;;;;;8.60;5.60;;;18.70;84.00;;;;;;5069974;28;20024;-77
2021/09/11 02:31:27;;;;;;;8.27;5.80;;;18.60;84.00;;;;;;5065848;28;20071;-77
2021/09/11 02:33:53;;;;;;;5.97;4.65;;;18.60;84.10;;;;;;5071209;28;20059;-78
2021/09/11 02:36:19;;;;;;;6.78;5.47;;;18.60;84.20;;;;;;5070811;28;20059;-77
2021/09/11 02:38:44;;;;;;;7.00;5.10;;;18.60;84.20;;;;;;5071060;28;20099;-78
2021/09/11 02:41:10;;;;;;;9.02;5.70;;;18.60;84.20;;;;;;5062898;28;20501;-77
2021/09/11 02:43:36;;;;;;;6.53;5.00;;;18.50;84.20;;;;;;5071090;28;20131;-77
2021/09/11 02:46:02;;;;;;;5.80;4.53;;;18.50;84.20;;;;;;5071005;28;20104;-77
2021/09/11 02:48:27;;;;;;;5.63;3.78;;;18.50;84.20;;;;;;5070087;28;20031;-77
2021/09/11 02:50:53;;;;;;;6.90;5.13;;;18.40;84.20;;;;;;5068978;28;20016;-77
2021/09/11 02:53:18;;;;;;;6.03;4.25;;;18.40;84.20;;;;;;5070054;28;20036;-77
2021/09/11 02:55:44;;;;;;;4.82;3.75;;;18.40;84.20;;;;;;5069427;28;20028;-77
2021/09/11 02:58:10;;;;;;;5.70;4.32;;;18.30;84.20;;;;;;5070378;28;20025;-77
2021/09/11 03:00:35;;;;;;;6.65;4.47;;;18.30;84.30;;;;;;5068708;28;20413;-77
2021/09/11 03:03:01;;;;;;;7.20;5.30;;;18.30;84.30;;;;;;5069698;28;20056;-76
2021/09/11 03:05:27;;;;;;;6.78;5.07;;;18.20;84.30;;;;;;5070992;28;20047;-77
2021/09/11 03:07:53;;;;;;;6.38;4.25;;;18.20;84.30;;;;;;5069116;28;20482;-76
2021/09/11 03:10:18;;;;;;;4.63;3.70;;;18.20;84.30;;;;;;5070904;28;20024;-76
2021/09/11 03:12:44;;;;;;;6.10;4.38;;;18.20;84.40;;;;;;5069585;28;20779;-77
2021/09/11 03:15:10;;;;;;;6.00;4.70;;;18.10;84.40;;;;;;5070355;28;20044;-78
2021/09/11 03:17:36;;;;;;;6.07;4.68;;;18.10;84.40;;;;;;5064993;28;20406;-76
2021/09/11 03:20:03;;;;;;;6.72;4.82;;;18.10;84.40;;;;;;5070674;28;20020;-76
2021/09/11 03:22:28;;;;;;;7.88;5.43;;;18.10;84.30;;;;;;5070894;28;20025;-76
2021/09/11 03:24:54;;;;;;;8.13;5.20;;;18.10;84.30;;;;;;5068870;28;20032;-77
2021/09/11 03:27:19;;;;;;;6.75;4.45;;;18.10;84.30;;;;;;5059792;28;20029;-77
2021/09/11 03:29:45;;;;;;;6.93;4.95;;;18.10;84.20;;;;;;5069978;28;20025;-78
2021/09/11 03:32:10;;;;;;;9.52;6.95;;;18.10;84.10;;;;;;5070288;28;20036;-77
2021/09/11 03:34:36;;;;;;;7.32;5.30;;;18.10;84.10;;;;;;5070215;28;20025;-77
2021/09/11 03:37:03;;;;;;;8.02;4.88;;;18.00;84.10;;;;;;5069320;28;20033;-78
2021/09/11 03:39:28;;;;;;;7.32;5.05;;;18.00;84.10;;;;;;5070344;28;20025;-77
2021/09/11 03:41:54;;;;;;;6.60;4.82;;;17.90;84.10;;;;;;5067014;28;20631;-77
2021/09/11 03:44:20;;;;;;;8.55;6.28;;;17.90;84.20;;;;;;5070148;28;20039;-77
2021/09/11 03:46:45;;;;;;;8.57;6.32;;;17.90;84.20;;;;;;5070190;28;20063;-77
2021/09/11 03:49:11;;;;;;;8.60;5.93;;;17.90;84.30;;;;;;5070728;28;20029;-77
2021/09/11 03:51:36;;;;;;;9.95;6.78;;;17.90;84.30;;;;;;5065680;28;20025;-77
2021/09/11 03:54:03;;;;;;;8.55;6.15;;;17.80;84.30;;;;;;5067192;28;20032;-77
2021/09/11 03:56:28;;;;;;;9.70;7.07;;;17.90;84.40;;;;;;5069205;28;20051;-76
2021/09/11 03:58:54;;;;;;;9.88;7.18;;;17.80;84.40;;;;;;5069645;28;20036;-76
2021/09/11 04:01:19;;;;;;;9.43;6.90;;;17.80;84.60;;;;;;5069272;28;20021;-77
2021/09/11 04:03:45;;;;;;;8.88;6.68;;;17.70;84.60;;;;;;5069353;28;20101;-76
2021/09/11 04:06:11;;;;;;;8.32;6.53;;;17.70;84.60;;;;;;5070196;28;20052;-75
2021/09/11 04:08:37;;;;;;;11.27;6.75;;;17.70;84.60;;;;;;5070004;28;20056;-75
2021/09/11 04:11:03;;;;;;;9.38;6.63;;;17.70;84.80;;;;;;5065445;28;20423;-75
2021/09/11 04:13:28;;;;;;;10.70;7.90;;;17.70;84.90;;;;;;5070413;28;20497;-75
2021/09/11 04:15:54;;;;;;;9.52;7.22;;;17.60;85.00;;;;;;5069018;28;20506;-76
2021/09/11 04:18:19;;;;;;;10.48;7.68;;;17.60;85.00;;;;;;5070029;28;20413;-76
2021/09/11 04:20:45;;;;;;;10.05;7.30;;;17.60;85.10;;;;;;5065364;28;20438;-77
2021/09/11 04:23:10;;;;;;;12.25;8.27;;;17.60;85.30;;;;;;5069574;28;20032;-76
2021/09/11 04:25:36;;;;;;;10.52;7.65;;;17.60;85.30;;;;;;5069346;28;20024;-76
2021/09/11 04:28:02;;;;;;;9.40;6.53;;;17.60;85.30;;;;;;5068850;28;20025;-77
2021/09/11 04:30:27;;;;;;;9.82;7.75;;;17.60;85.30;;;;;;5061522;28;20021;-77
2021/09/11 04:32:53;;;;;;;11.27;8.90;;;17.60;85.40;;;;;;5070131;28;20036;-77
2021/09/11 04:35:18;;;;;;;8.95;6.68;;;17.60;85.50;;;;;;5069502;28;20021;-77
2021/09/11 04:37:44;;;;;;;9.77;7.57;;;17.70;85.50;;;;;;5068867;28;20032;-77
2021/09/11 04:40:10;;;;;;;11.27;8.82;;;17.70;85.40;;;;;;5068817;28;20044;-77
2021/09/11 04:42:35;;;;;;;15.20;10.82;;;17.70;85.40;;;;;;5069012;28;20061;-78
2021/09/11 04:45:01;;;;;;;11.18;8.07;;;17.60;85.70;;;;;;5069392;28;20029;-78
2021/09/11 04:47:27;;;;;;;8.50;6.88;;;17.60;85.80;;;;;;5071919;28;20474;-78
2021/09/11 04:49:52;;;;;;;11.57;8.27;;;17.60;85.70;;;;;;5073492;28;20471;-77
2021/09/11 04:52:18;;;;;;;11.48;8.88;;;17.60;85.70;;;;;;5072187;28;20437;-78
2021/09/11 04:54:43;;;;;;;9.65;6.55;;;17.60;85.80;;;;;;5071935;28;20032;-78
2021/09/11 04:57:09;;;;;;;10.18;8.48;;;17.60;85.80;;;;;;5071883;28;20486;-79
2021/09/11 04:59:35;;;;;;;8.35;6.63;;;17.60;85.70;;;;;;5072480;28;20028;-78
2021/09/11 05:02:00;;;;;;;11.00;8.35;;;17.60;85.80;;;;;;5069850;28;20031;-77
2021/09/11 05:04:26;;;;;;;11.55;9.00;;;17.60;85.70;;;;;;5069560;28;20052;-78
2021/09/11 05:06:51;;;;;;;11.55;8.50;;;17.60;85.80;;;;;;5063375;28;20051;-78
2021/09/11 05:09:17;;;;;;;8.93;6.20;;;17.60;85.90;;;;;;5077298;28;20024;-78
2021/09/11 05:11:42;;;;;;;11.50;7.25;;;17.70;85.90;;;;;;5073186;28;20043;-78
2021/09/11 05:14:08;;;;;;;13.07;9.30;;;17.70;85.80;;;;;;5072550;28;20025;-75
2021/09/11 05:16:33;;;;;;;14.45;8.88;;;17.60;85.80;;;;;;5076967;28;20474;-76
2021/09/11 05:18:59;;;;;;;8.15;6.47;;;17.60;86.00;;;;;;5079301;28;20016;-77
2021/09/11 05:21:24;;;;;;;11.95;8.80;;;17.60;86.00;;;;;;5073462;28;20036;-77
2021/09/11 05:23:50;;;;;;;14.73;10.05;;;17.60;86.00;;;;;;5068893;28;20028;-77
2021/09/11 05:26:16;;;;;;;9.77;7.05;;;17.50;86.20;;;;;;5069529;28;20174;-78
2021/09/11 05:28:41;;;;;;;11.30;8.20;;;17.50;86.30;;;;;;5071339;28;20031;-77
2021/09/11 05:31:07;;;;;;;12.38;7.43;;;17.60;86.30;;;;;;5069889;28;20024;-76
2021/09/11 05:33:32;;;;;;;7.55;5.90;;;17.50;86.30;;;;;;5070225;28;20028;-76
2021/09/11 05:35:58;;;;;;;8.77;6.15;;;17.60;86.20;;;;;;5071076;28;20032;-77
2021/09/11 05:38:23;;;;;;;9.77;7.00;;;17.60;86.10;;;;;;5071170;28;20032;-77
2021/09/11 05:40:49;;;;;;;8.98;6.35;;;17.70;86.10;;;;;;5072817;28;20032;-78
2021/09/11 05:43:15;;;;;;;11.40;8.05;;;17.70;86.00;;;;;;5073370;28;20039;-77
2021/09/11 05:45:41;;;;;;;12.10;8.27;;;17.70;86.00;;;;;;5071969;28;20409;-77
2021/09/11 05:48:06;;;;;;;9.63;7.28;;;17.70;86.20;;;;;;5071094;28;20027;-77
2021/09/11 05:50:32;;;;;;;8.07;5.55;;;17.70;86.30;;;;;;5070405;28;20094;-77
2021/09/11 05:52:58;;;;;;;11.13;7.35;;;17.70;86.20;;;;;;5071678;28;20066;-78
2021/09/11 05:55:23;;;;;;;6.07;4.63;;;17.70;86.20;;;;;;5071576;28;20021;-76
2021/09/11 05:57:49;;;;;;;10.55;7.47;;;17.70;86.10;;;;;;5068783;28;20490;-76
2021/09/11 06:00:14;;;;;;;9.15;6.72;;;17.80;86.00;;;;;;5071224;28;20032;-76
2021/09/11 06:02:40;;;;;;;13.30;9.45;;;17.80;86.10;;;;;;5071159;28;20056;-77
2021/09/11 06:05:06;;;;;;;8.70;6.78;;;17.80;86.20;;;;;;5070840;28;20436;-76
2021/09/11 06:07:33;;;;;;;8.65;5.63;;;17.80;86.20;;;;;;5070280;28;20070;-76
2021/09/11 06:10:02;;;;;;;9.80;6.25;;;17.80;86.20;;;;;;5071006;28;20105;-78
2021/09/11 06:12:27;;;;;;;10.32;6.90;;;17.90;86.10;;;;;;5068378;28;20029;-77
2021/09/11 06:14:53;;;;;;;10.15;6.32;;;17.90;86.00;;;;;;5070366;28;20508;-78
2021/09/11 06:17:18;;;;;;;9.00;5.75;;;17.90;86.00;;;;;;5068647;28;20467;-77
2021/09/11 06:19:44;;;;;;;8.93;5.88;;;17.90;85.90;;;;;;5067072;28;20052;-77
2021/09/11 06:22:11;;;;;;;8.60;6.07;;;17.90;86.00;;;;;;5071002;28;20020;-77
2021/09/11 06:24:37;;;;;;;5.93;3.65;;;17.90;86.00;;;;;;5067936;28;20107;-79
2021/09/11 06:27:04;;;;;;;9.05;5.85;;;17.90;85.90;;;;;;5070090;28;20024;-79
2021/09/11 06:29:30;;;;;;;7.68;5.13;;;17.90;86.00;;;;;;5070537;28;20115;-78
2021/09/11 06:31:56;;;;;;;5.15;3.38;;;18.00;85.90;;;;;;5070335;28;20032;-79
2021/09/11 06:34:21;;;;;;;9.32;7.00;;;18.00;85.80;;;;;;5069771;28;20040;-78
2021/09/11 06:36:47;;;;;;;6.70;4.90;;;18.00;85.80;;;;;;5069757;28;20033;-78
2021/09/11 06:39:12;;;;;;;6.55;4.93;;;18.00;85.70;;;;;;5070018;28;20032;-78
2021/09/11 06:41:38;;;;;;;9.35;6.90;;;18.10;85.70;;;;;;5069854;28;20115;-78
2021/09/11 06:44:04;;;;;;;7.95;6.05;;;18.00;85.70;;;;;;5069942;28;20073;-79
2021/09/11 06:46:29;;;;;;;6.97;5.40;;;18.00;85.80;;;;;;5069879;28;20036;-78
2021/09/11 06:48:55;;;;;;;7.30;5.20;;;18.10;85.70;;;;;;5070208;28;20040;-79
2021/09/11 06:51:20;;;;;;;5.90;4.20;;;18.10;85.60;;;;;;5065634;28;20025;-79
2021/09/11 06:53:46;;;;;;;6.60;5.40;;;18.10;85.50;;;;;;5069151;28;20112;-78
2021/09/11 06:56:11;;;;;;;7.57;5.80;;;18.20;85.40;;;;;;5070508;28;20111;-78
2021/09/11 06:58:37;;;;;;;9.95;6.72;;;18.20;85.40;;;;;;5070915;28;20150;-79
2021/09/11 07:01:02;;;;;;;6.05;4.82;;;18.20;85.40;;;;;;5074303;28;20373;-78
2021/09/11 07:03:28;;;;;;;10.38;5.72;;;18.20;85.40;;;;;;5068711;28;20535;-79
2021/09/11 07:05:54;;;;;;;6.38;4.88;;;18.30;85.40;;;;;;5067589;28;20380;-78
2021/09/11 07:08:19;;;;;;;7.30;4.38;;;18.30;85.30;;;;;;5068335;28;20023;-79
2021/09/11 07:10:45;;;;;;;7.38;4.30;;;18.40;85.20;;;;;;5070032;28;20028;-79
2021/09/11 07:13:10;;;;;;;7.05;4.47;;;18.40;85.10;;;;;;5061906;28;20024;-79
2021/09/11 07:15:36;;;;;;;6.43;5.20;;;18.40;85.10;;;;;;5075140;28;20063;-79
2021/09/11 07:18:02;;;;;;;9.07;6.25;;;18.40;85.00;;;;;;5074441;28;20675;-77
2021/09/11 07:20:29;;;;;;;14.52;10.98;;;18.40;85.10;;;;;;5072989;28;20052;-79
2021/09/11 07:22:55;;;;;;;8.50;5.75;;;18.50;85.10;;;;;;5070627;28;20458;-79
2021/09/11 07:25:21;;;;;;;6.75;4.70;;;18.50;85.00;;;;;;5066881;28;20101;-80
2021/09/11 07:27:46;;;;;;;6.80;4.63;;;18.50;85.00;;;;;;5068931;28;20062;-80
2021/09/11 07:30:12;;;;;;;6.75;4.25;;;18.60;84.80;;;;;;5076678;28;20052;-81
2021/09/11 07:32:38;;;;;;;8.15;5.82;;;18.70;84.70;;;;;;5089187;28;20382;-80
2021/09/11 07:35:04;;;;;;;9.43;6.25;;;18.70;84.50;;;;;;5070039;28;20070;-81
2021/09/11 07:37:29;;;;;;;8.82;6.13;;;18.70;84.40;;;;;;5073968;28;20168;-81
2021/09/11 07:39:55;;;;;;;9.27;6.07;;;18.70;84.40;;;;;;5073248;28;20099;-82
2021/09/11 07:42:20;;;;;;;6.85;5.97;;;18.80;84.40;;;;;;5084837;28;20055;-83
2021/09/11 07:44:46;;;;;;;8.00;5.15;;;18.80;84.30;;;;;;5081861;28;20035;-80
2021/09/11 07:47:12;;;;;;;7.30;5.80;;;18.80;84.20;;;;;;5079269;28;20050;-80
2021/09/11 07:49:37;;;;;;;7.55;5.43;;;18.90;84.10;;;;;;5069406;28;20020;-81
2021/09/11 07:52:04;;;;;;;7.55;5.63;;;19.00;84.00;;;;;;5072564;28;20078;-80
2021/09/11 07:54:30;;;;;;;9.90;4.45;;;19.10;83.90;;;;;;5069349;28;20044;-80
2021/09/11 07:56:55;;;;;;;6.97;4.95;;;19.20;83.80;;;;;;5069246;28;20064;-80
2021/09/11 07:59:21;;;;;;;5.90;4.35;;;19.20;83.70;;;;;;5071840;28;20509;-80
2021/09/11 08:01:46;;;;;;;10.18;5.97;;;19.20;83.60;;;;;;5085430;28;20028;-80
2021/09/11 08:04:12;;;;;;;11.90;9.00;;;19.30;83.50;;;;;;5073128;28;20367;-80
2021/09/11 08:06:37;;;;;;;10.98;7.93;;;19.40;83.30;;;;;;5073964;28;20020;-80
2021/09/11 08:09:03;;;;;;;8.85;6.90;;;19.30;83.20;;;;;;5089721;28;20056;-80
2021/09/11 08:11:28;;;;;;;12.55;7.85;;;19.30;83.30;;;;;;5076971;28;20146;-81
2021/09/11 08:13:54;;;;;;;6.82;5.40;;;19.30;83.30;;;;;;5086420;28;20020;-80
2021/09/11 08:16:20;;;;;;;7.68;5.97;;;19.40;83.30;;;;;;5070732;28;20482;-81
2021/09/11 08:18:46;;;;;;;7.60;5.60;;;19.40;83.30;;;;;;5076664;28;20032;-81
2021/09/11 08:21:12;;;;;;;10.85;6.65;;;19.40;83.20;;;;;;5075030;28;20107;-86
2021/09/11 08:23:38;;;;;;;8.27;6.75;;;19.40;83.10;;;;;;5082418;28;20024;-84
2021/09/11 08:26:04;;;;;;;10.05;6.63;;;19.50;83.20;;;;;;5074872;28;20479;-81
2021/09/11 08:28:30;;;;;;;5.80;4.88;;;19.50;83.10;;;;;;5105439;28;20012;-81
2021/09/11 08:30:56;;;;;;;8.05;6.38;;;19.60;83.00;;;;;;5074188;28;20107;-80
2021/09/11 08:33:22;;;;;;;6.75;4.95;;;19.60;82.70;;;;;;5073427;28;20028;-81
2021/09/11 08:35:47;;;;;;;8.48;7.10;;;19.70;82.60;;;;;;5072559;28;20031;-80
2021/09/11 08:38:13;;;;;;;8.35;6.70;;;19.80;82.40;;;;;;5078146;28;20047;-81
2021/09/11 08:40:40;;;;;;;7.55;6.05;;;19.80;83.00;;;;;;5075708;28;20082;-79
2021/09/11 08:43:07;;;;;;;8.25;6.60;;;19.80;82.20;;;;;;5068716;28;20459;-81
2021/09/11 08:45:33;;;;;;;10.13;6.80;;;19.90;82.20;;;;;;5067181;28;20020;-81
2021/09/11 08:48:01;;;;;;;9.55;6.82;;;19.90;82.10;;;;;;5072259;28;20720;-80
2021/09/11 08:50:28;;;;;;;8.10;6.13;;;19.90;82.10;;;;;;5072732;28;20074;-79
2021/09/11 08:52:54;;;;;;;11.50;7.93;;;19.80;82.10;;;;;;5067097;28;20020;-81
2021/09/11 08:55:19;;;;;;;12.23;9.10;;;19.80;82.10;;;;;;5072267;28;20009;-81
2021/09/11 08:58:06;;;;;;;8.10;6.38;;;19.80;82.00;;;;;;5070564;28;20541;-81
2021/09/11 09:00:46;;;;;;;7.60;5.40;;;19.70;82.20;;;;;;5072582;28;20020;-81
2021/09/11 09:03:35;;;;;;;7.80;6.38;;;19.80;82.30;;;;;;5070990;28;20368;-81
2021/09/11 09:06:21;;;;;;;7.50;6.70;;;19.90;82.10;;;;;;5086817;28;20036;-81
2021/09/11 09:08:49;;;;;;;9.27;7.22;;;19.90;82.00;;;;;;5065257;28;20093;-81
2021/09/11 09:11:29;;;;;;;9.18;7.18;;;20.00;82.00;;;;;;5069533;28;20079;-80
2021/09/11 09:13:57;;;;;;;8.50;6.55;;;20.00;81.80;;;;;;5062765;28;20463;-79
2021/09/11 09:16:24;;;;;;;8.82;6.13;;;20.00;81.70;;;;;;5069379;28;20024;-79
2021/09/11 09:18:50;;;;;;;9.60;6.68;;;20.00;81.80;;;;;;5068697;28;20032;-80
2021/09/11 09:21:23;;;;;;;8.68;6.68;;;20.00;81.80;;;;;;5067447;28;20033;-81
2021/09/11 09:23:52;;;;;;;6.38;5.78;;;20.10;81.80;;;;;;5068112;28;20024;-78
2021/09/11 09:26:18;;;;;;;5.88;4.50;;;20.10;81.70;;;;;;5062700;28;20024;-78
2021/09/11 09:29:06;;;;;;;5.28;4.60;;;20.10;81.70;;;;;;5071229;28;20035;-76
2021/09/11 09:31:32;;;;;;;8.85;6.88;;;20.10;81.60;;;;;;5065072;28;20033;-77
2021/09/11 09:33:58;;;;;;;8.68;6.38;;;20.10;81.40;;;;;;5071064;28;20490;-79
2021/09/11 09:36:35;;;;;;;7.50;6.38;;;20.10;81.50;;;;;;5070109;28;20111;-81
2021/09/11 09:39:03;;;;;;;9.55;7.45;;;20.10;81.50;;;;;;5071734;28;20053;-82
2021/09/11 09:41:45;;;;;;;11.40;9.07;;;20.10;81.30;;;;;;5070636;28;20475;-81
2021/09/11 09:44:16;;;;;;;12.13;10.52;;;20.10;81.30;;;;;;5071109;28;20475;-82
2021/09/11 09:46:43;;;;;;;12.65;9.68;;;20.10;81.30;;;;;;5069252;28;20017;-82
2021/09/11 09:49:10;;;;;;;14.35;11.40;;;20.10;81.30;;;;;;5070006;28;20032;-83
2021/09/11 09:51:38;;;;;;;9.90;8.30;;;20.10;81.10;;;;;;5066819;28;20021;-80
2021/09/11 09:54:04;;;;;;;13.13;9.77;;;20.10;81.20;;;;;;5069484;28;20524;-82
2021/09/11 09:56:31;;;;;;;12.73;9.57;;;20.10;81.00;;;;;;5069895;28;20115;-81
2021/09/11 09:58:58;;;;;;;12.13;10.02;;;20.10;81.00;;;;;;5070591;28;20056;-82
2021/09/11 10:01:24;;;;;;;11.43;8.13;;;20.10;80.90;;;;;;5069312;28;20028;-83
2021/09/11 10:03:50;;;;;;;8.70;7.57;;;20.20;81.00;;;;;;5072458;28;20103;-84
2021/09/11 10:06:26;;;;;;;8.40;7.00;;;20.20;81.00;;;;;;5073127;28;20115;-82
2021/09/11 10:09:05;;;;;;;12.13;8.68;;;20.30;81.00;;;;;;5084718;28;20027;-83
2021/09/11 10:11:49;;;;;;;11.85;9.48;;;20.30;80.90;;;;;;5070169;28;20501;-83
2021/09/11 10:14:16;;;;;;;8.80;7.88;;;20.30;80.90;;;;;;5074321;28;20074;-83
2021/09/11 10:16:44;;;;;;;13.30;11.50;;;20.30;80.90;;;;;;5069789;28;20020;-84
2021/09/11 10:19:20;;;;;;;11.10;9.15;;;20.30;80.80;;;;;;5069584;28;20024;-83
2021/09/11 10:21:48;;;;;;;9.40;8.38;;;20.30;81.40;;;;;;5069972;28;20036;-83
2021/09/11 10:24:14;;;;;;;8.18;6.50;;;20.30;80.80;;;;;;5073381;28;20021;-83
2021/09/11 10:26:50;;;;;;;5.93;5.28;;;20.40;80.80;;;;;;5071733;28;20099;-83
2021/09/11 10:29:37;;;;;;;9.63;7.15;;;20.40;80.80;;;;;;5066394;28;20529;-83
2021/09/11 10:32:11;;;;;;;12.07;8.85;;;20.50;80.80;;;;;;5080977;28;20023;-83
2021/09/11 10:35:01;;;;;;;13.20;10.05;;;20.50;80.80;;;;;;5069838;28;20032;-84
2021/09/11 10:37:38;;;;;;;9.90;8.90;;;20.40;80.60;;;;;;5067094;28;20028;-83
2021/09/11 10:40:13;;;;;;;8.77;7.40;;;20.40;80.80;;;;;;5085434;28;20107;-84
2021/09/11 10:43:01;;;;;;;10.10;7.70;;;20.40;80.80;;;;;;5069645;28;20055;-83
2021/09/11 10:46:07;;;;;;;10.05;7.68;;;20.40;80.80;;;;;;5070293;28;20531;-84
2021/09/11 10:48:51;;;;;;;9.68;7.75;;;20.40;80.80;;;;;;5066961;28;20070;-83
2021/09/11 10:51:24;;;;;;;8.85;7.40;;;20.40;80.90;;;;;;5064583;28;20016;-83
2021/09/11 10:54:08;;;;;;;11.27;7.90;;;20.40;80.80;;;;;;5071530;28;20020;-84
2021/09/11 10:56:38;;;;;;;10.52;8.02;;;20.50;80.90;;;;;;5069849;28;20025;-83
2021/09/11 10:59:18;;;;;;;11.10;9.20;;;20.50;80.80;;;;;;5066061;28;20430;-84
2021/09/11 11:02:02;;;;;;;9.52;7.68;;;20.50;81.40;;;;;;5071015;28;20115;-84
2021/09/11 11:04:48;;;;;;;8.68;7.03;;;20.60;80.60;;;;;;5080351;28;20028;-84
2021/09/11 11:07:19;;;;;;;11.48;9.20;;;20.60;80.50;;;;;;5070574;28;20059;-84
2021/09/11 11:09:49;;;;;;;10.85;9.18;;;20.60;80.40;;;;;;5070270;28;20033;-83
2021/09/11 11:12:21;;;;;;;9.10;7.35;;;20.60;80.30;;;;;;5074604;28;20507;-85
2021/09/11 11:14:47;;;;;;;10.63;8.45;;;20.70;80.40;;;;;;5084924;28;20103;-84
2021/09/11 11:17:19;;;;;;;8.98;7.18;;;20.80;80.30;;;;;;5068828;28;20616;-84
2021/09/11 11:19:47;;;;;;;;;;;20.80;80.20;;;;;;5086335;28;20024;-85
2021/09/11 11:22:16;;;;;;;9.93;7.72;;;20.90;80.10;;;;;;5080861;28;19942;-85
2021/09/11 11:24:47;;;;;;;10.18;7.97;;;21.00;79.90;;;;;;5070425;28;20561;-84
2021/09/11 11:27:18;;;;;;;11.75;9.73;;;21.10;79.90;;;;;;5081531;28;20036;-84
2021/09/11 11:29:46;;;;;;;13.13;10.25;;;21.10;79.60;;;;;;5074030;28;20178;-85
2021/09/11 11:32:13;;;;;;;10.55;8.57;;;21.30;79.40;;;;;;5085526;28;20146;-85
2021/09/11 11:34:39;;;;;;;9.43;8.20;;;21.40;79.90;;;;;;5075741;28;20023;-84
2021/09/11 11:37:11;;;;;;;11.73;9.43;;;21.50;79.00;;;;;;5080956;28;20365;-84
2021/09/11 11:39:42;;;;;;;9.85;8.10;;;21.70;78.60;;;;;;5084788;28;20126;-84
2021/09/11 11:42:11;;;;;;;10.93;8.75;;;21.90;78.20;;;;;;5069433;28;20029;-84
2021/09/11 11:44:42;;;;;;;15.70;13.45;;;22.00;77.70;;;;;;5084111;28;20031;-85
2021/09/11 11:47:34;;;;;;;11.60;10.38;;;22.10;76.80;;;;;;5071644;28;20379;-84
2021/09/11 11:50:00;;;;;;;10.90;9.52;;;22.20;76.70;;;;;;5070057;28;20089;-85
2021/09/11 11:52:27;;;;;;;11.15;10.00;;;22.40;76.50;;;;;;5064967;28;20066;-84
2021/09/11 11:54:53;;;;;;;11.43;9.40;;;22.60;76.10;;;;;;5063101;28;20051;-85
2021/09/11 11:57:23;;;;;;;11.13;9.93;;;22.80;75.70;;;;;;5067206;28;20040;-85
2021/09/11 12:00:07;;;;;;;13.63;10.82;;;22.90;75.00;;;;;;5068617;28;20090;-84
2021/09/11 12:02:36;;;;;;;11.32;9.02;;;22.90;74.60;;;;;;5070104;28;20034;-84
2021/09/11 12:05:23;;;;;;;9.38;8.38;;;22.90;74.60;;;;;;5066090;28;20027;-84
2021/09/11 12:08:08;;;;;;;10.13;8.50;;;22.80;74.60;;;;;;5065869;28;20021;-86
2021/09/11 12:10:34;;;;;;;9.05;8.15;;;22.70;74.60;;;;;;5060380;28;20148;-81
2021/09/11 12:13:10;;;;;;;8.98;7.63;;;22.70;74.80;;;;;;5079410;28;20107;-81
2021/09/11 12:15:37;;;;;;;10.13;8.90;;;22.70;74.80;;;;;;5076587;28;20059;-82
2021/09/11 12:18:14;;;;;;;9.63;8.57;;;22.60;74.70;;;;;;5077288;28;20394;-79
2021/09/11 12:20:50;;;;;;;9.45;8.23;;;22.50;74.50;;;;;;5075684;28;20039;-79
2021/09/11 12:23:19;;;;;;;11.95;9.75;;;22.50;74.60;;;;;;5076526;28;20031;-82
2021/09/11 12:25:51;;;;;;;12.68;10.82;;;22.40;74.60;;;;;;5075429;28;20032;-82
2021/09/11 12:28:33;;;;;;;9.57;8.57;;;22.30;74.60;;;;;;5090897;28;20444;-81
2021/09/11 12:30:59;;;;;;;6.95;6.25;;;22.20;74.90;;;;;;5075245;28;20063;-81
2021/09/11 12:33:27;;;;;;;6.20;5.60;;;22.00;75.20;;;;;;5076725;28;20055;-83
2021/09/11 12:35:53;;;;;;;5.78;5.13;;;21.80;75.90;;;;;;5076976;28;20493;-82
2021/09/11 12:38:19;;;;;;;5.68;4.53;;;21.60;76.50;;;;;;5076695;28;20107;-83
2021/09/11 12:40:44;;;;;;;5.05;4.50;;;21.50;77.10;;;;;;5074385;28;20116;-84
2021/09/11 12:43:11;;;;;;;4.97;4.38;;;21.40;77.60;;;;;;5076112;28;20028;-84
2021/09/11 12:45:39;;;;;;;4.20;3.58;;;21.30;77.90;;;;;;5075892;28;20029;-85
2021/09/11 12:48:05;;;;;;;4.60;3.80;;;21.20;78.10;;;;;;5084386;28;20035;-81